This site, now in its 22nd season, is a labour of love and fun from one of Ottawa's most avid time trialists and number crunchers. It adheres to and is permitted by the laws of Canada, promotes the objectives of every bicycle club whose results are shown, and is donated free of charge by myself for your enjoyment and usage. If you would like results from series you ride in to be shown here, give me (celia@drmath.ca) a shout!
NOTE that this site had to be quickly moved to a new server with a new version of Perl. Unfortunately the way of interacting with the web form has changed, so I'll have to do some reprogramming to get the buttons and search boxes working. Meanwhile the links work fine and you can always add query specifications into the URL! :-)


Index Page
ATT OTT WTT AATT CFCTT VVVTT
Help resultformat:
Case-sensitive

OBC Open TT Series - 2016-Aug-11 - 15km (Rockliffe Pkwy) (EvtFactor = 0.9424)

Ottawa Weather (18:00): Partly Cloudy. Temperature: 33.8C, Wind: SE5km/h, Humidex: 40, Relative humidity: 39%, Dew point: 18C, Pressure: 101.2kPa, Visibility: 24km.
Ottawa Weather (19:00): Mostly Cloudy. Temperature: 32.6C, Wind: ESE 13km/h, Humidex: 39, Relative humidity: 42%, Dew point: 18C, Pressure: 101.2kPa, Visibility: 24km.
Ottawa Weather (20:00): Mostly Cloudy. Temperature: 29.6C, Wind: SE 9km/h, Humidex: 36, Relative humidity: 50%, Dew point: 18C, Pressure: 101.2kPa, Visibility: 24km.


These results were first posted on the OBC web site circa 15:00 on 2016-Aug-18 and are available here for your added pleasure and analysis.

 
 

BESTS?
 
1 Cataford, Alex SIL 18:33 48.518 1/40 U30M 1/3 1.0245
2 Fillion, Aaron  OBC/RWR 18:56 47.535 2/40 U50M 1/10 1.0186
3 Brazeau, Marc RDO 19:13 46.834 3/40 U50M 2/10 1.0000
4 Diaz, Rodrigo  OBC/EUR 19:52 45.302 4/40 U40M 1/8 1.0025
5 Simard, Alexandre IND 20:41 43.513 5/40 U40M 2/8 0.9223
6 Rendall, Glen  RWR 20:53 43.097 6/40 U50M 3/10 0.8268
7 Martin, David OBC 20:58 42.925 7/40 U50M 4/10 1.0265
8 Dunbrack, Jeffrey OBC 21:15 42.353 8/40 U40M 3/8 1.0502
9 Page, Graham OBC/NTF 21:27 41.958 9/40 U40M 4/8 1.0070
10 Robitaille, Brian  OBC/FC 21:41 41.507 10/40 U60M 1/6 0.9215
11 Charlton, Christopher OBC 21:55 41.065 11/40 U70M 1/4 0.9158
Moon, Clay OBC 21:55 41.065 11/40 U19M 1/2 0.9955
Y 13 Hicks, Bob  OBC 21:56 41.033 13/40 U80M 1/3 1.0486
14 Till, Michael WQW 22:22 40.238 14/40 U60M 2/6 1.0000
15 Metsaranta, Juha OBC 22:24 40.179 15/40 U50M 5/10 1.1063
16 Le-Lieu, Martin OBC 22:28 40.059 16/40 U40M 5/8 0.9779
17 Phelps, Ryan IND 22:34 39.882 17/40 U40M 6/8 0.9371
18 Thompson, William OBC 22:38 39.764 18/40 U60M 3/6 1.0267
Wright, David EUR 22:38 39.764 18/40 U50M 6/10 0.9846
20 Basu, Ben  OBC 22:56 39.244 20/40 U50M 7/10 0.9591
21 Kozak, Robert OBC 22:58 39.187 21/40 U19M 2/2 1.0330
22 Redshaw, Russ  OBC 22:59 39.159 22/40 U70M 2/4 0.9935
23 Corpuz, John OBC 23:04 39.017 23/40 U30M 2/3 0.9678
24 Desjardins, René RDO 23:08 38.905 24/40 U60M 4/6 0.9807
25 Deschamps, Martin WQW 23:26 38.407 25/40 U50M 8/10 0.9374
26 Angeles, Robyn  IND 23:38 38.082 26/40 U60F 1/2 0.7975
27 DeVidi, Robert  OBC 23:39 38.055 27/40 U60M 5/6 0.7690
28 Kandoy, Meylina OBC 23:42 37.975 28/40 U60F 2/2 0.9646
29 Holt, Doug OBC 23:48 37.815 29/40 U60M 6/6 0.9979
30 Adams, Randy OBC 24:03 37.422 30/40 U70M 3/4 0.9917
31 Comtois Lecocq, Alex OBC 24:19 37.012 31/40 U40M 7/8 1.0124
Wright, Jake EUR 24:19 37.012 31/40 U17M 1/1 0.9796
33 Fontaine, Dominic TEK 24:24 36.885 33/40 U50M 9/10 1.0123
Martin, Christopher OBC 24:24 36.885 33/40 U40M 8/8  
35 Looman, Greg OBC 24:25 36.860 35/40 U50M 10/10 0.9029
36 Guignard, Christian OBC 24:52 36.193 36/40 U70M 4/4 0.8244
37 Zuiderveen, Thomas OBC 24:59 36.024 37/40 U30M 3/3 0.9585
38 Dore, Morley OBC 25:02 35.952 38/40 U80M 2/3 1.0446
39 McInnis, Celia  OBC/ABC 25:32 35.248 39/40 U70F 1/1 1.0887
40 St. John, Ronald OBC 27:24 32.847 40/40 U80M 3/3 1.1038
 
Average Speed of all of the above 40 finishes (600km in 15:11:20):39.503
>>>Average of the Average Speeds for these 40 finishes39.769<<<
 

The number of data records shown above is 40
The server processing of your query took: 0 wallclock secs ( 0.04 usr + 0.00 sys = 0.04 CPU)

Thanks to our Helpers: Michel Bernier, Alex McKnight, Jess Raymond, Peter Tregunno.

     


Mar 25 (Good Friday - cancelled)
May 3 (10km) May 5 May 10 May 10 (10km) May 12 May 17 May 17 (10km) May 19 May 24 May 24 (10km) May 26 May 31 May 31 (10km)
Jun 2 Jun 5 (40km) Jun 7 Jun 7 Jun 9 Jun 14 Jun 14 Jun 16 Jun 21 Jun 21 Jun 23 Jun 28 Jun 28 Jun 30
Jul 3 (40km) Jul 5 Jul 5 Jul 7 Jul 12 Jul 12 Jul 14 Jul 19 Jul 19 Jul 21 Jul 26 Jul 26 Jul 28
Aug 2 Aug 2 Aug 4 Aug 7 (40km) Aug 9 Aug 9
  Aug 11  
Aug 16 (canceled) Aug 16 (canceled) Aug 18 Aug 23 Aug 23 Aug 25 Aug 30 Aug 30 (Invitational)
Sep 1 Sep 4 (40km) Sep 6 Sep 8 Sep 13 Sep 20

WTT Rankings for All Participants
4 Best Speeds (≥4 WTT, ≤1 10km)     4 Best Speeds (≥4 WTT, ≤1 10km) by category
OTT Best Three 15km Rankings
Overall     by category     age-Hcap Female   age-Hcap Male
[OWA]TT BAR Ranking
Overall     by category     Rider "Consistency-Graph"
ABC BAR Ranking
Overall     by category     Rider "Consistency-Graph"
Other years
TT Calculator All TT People All TT events
ABC Home VVV Home
CKAP GOLD MEDAL
Other Links

Please send your comments and suggestions to: Celia McInnis
Copyright © 1998-2021 Celia McInnis. All rights reserved. Links are welcomed.